sensor_id;sensor_type;location;lat;lon;timestamp;temperature;humidity
25128;DHT22;13107;51.304;6.866;2023-04-02T00:07:54;6.90;99.90
25128;DHT22;13107;51.304;6.866;2023-04-02T00:12:11;6.70;99.90
25128;DHT22;13107;51.304;6.866;2023-04-02T00:16:21;6.70;99.90
25128;DHT22;13107;51.304;6.866;2023-04-02T00:20:25;6.60;99.90
25128;DHT22;13107;51.304;6.866;2023-04-02T00:24:28;6.50;99.90
25128;DHT22;13107;51.304;6.866;2023-04-02T00:28:30;6.50;99.90
25128;DHT22;13107;51.304;6.866;2023-04-02T00:32:33;6.50;99.90
25128;DHT22;13107;51.304;6.866;2023-04-02T00:36:36;6.60;99.90
25128;DHT22;13107;51.304;6.866;2023-04-02T00:40:38;6.60;99.90
25128;DHT22;13107;51.304;6.866;2023-04-02T00:44:41;6.50;99.90
25128;DHT22;13107;51.304;6.866;2023-04-02T00:49:06;6.50;99.90
25128;DHT22;13107;51.304;6.866;2023-04-02T00:53:23;6.40;99.90
25128;DHT22;13107;51.304;6.866;2023-04-02T00:57:26;6.40;99.90
25128;DHT22;13107;51.304;6.866;2023-04-02T01:01:34;6.30;99.90
25128;DHT22;13107;51.304;6.866;2023-04-02T01:05:37;6.30;99.90
25128;DHT22;13107;51.304;6.866;2023-04-02T01:22:50;6.10;99.90
25128;DHT22;13107;51.304;6.866;2023-04-02T01:26:58;6.00;99.90
25128;DHT22;13107;51.304;6.866;2023-04-02T01:31:01;5.90;99.90
25128;DHT22;13107;51.304;6.866;2023-04-02T01:35:04;6.00;99.90
25128;DHT22;13107;51.304;6.866;2023-04-02T01:43:43;5.80;99.90
25128;DHT22;13107;51.304;6.866;2023-04-02T01:47:46;5.80;99.90
25128;DHT22;13107;51.304;6.866;2023-04-02T01:51:53;5.70;99.90
25128;DHT22;13107;51.304;6.866;2023-04-02T01:56:01;5.70;99.90
25128;DHT22;13107;51.304;6.866;2023-04-02T02:00:03;5.70;99.90
25128;DHT22;13107;51.304;6.866;2023-04-02T02:04:14;5.70;99.90
25128;DHT22;13107;51.304;6.866;2023-04-02T02:12:41;5.70;99.90
25128;DHT22;13107;51.304;6.866;2023-04-02T02:16:45;5.70;99.90
25128;DHT22;13107;51.304;6.866;2023-04-02T02:20:48;5.80;99.90
25128;DHT22;13107;51.304;6.866;2023-04-02T02:24:51;5.70;99.90
25128;DHT22;13107;51.304;6.866;2023-04-02T02:28:55;5.60;99.90
25128;DHT22;13107;51.304;6.866;2023-04-02T02:33:21;5.60;99.90
25128;DHT22;13107;51.304;6.866;2023-04-02T02:37:28;5.60;99.90
25128;DHT22;13107;51.304;6.866;2023-04-02T02:41:41;5.60;99.90
25128;DHT22;13107;51.304;6.866;2023-04-02T02:45:46;5.50;99.90
25128;DHT22;13107;51.304;6.866;2023-04-02T02:49:54;5.60;99.90
25128;DHT22;13107;51.304;6.866;2023-04-02T02:54:02;5.40;99.90
25128;DHT22;13107;51.304;6.866;2023-04-02T02:58:08;5.50;99.90
25128;DHT22;13107;51.304;6.866;2023-04-02T03:02:11;5.50;99.90
25128;DHT22;13107;51.304;6.866;2023-04-02T03:06:16;5.50;99.90
25128;DHT22;13107;51.304;6.866;2023-04-02T03:10:38;5.50;99.90
25128;DHT22;13107;51.304;6.866;2023-04-02T03:23:14;5.30;99.90
25128;DHT22;13107;51.304;6.866;2023-04-02T03:27:31;5.30;99.90
25128;DHT22;13107;51.304;6.866;2023-04-02T03:31:38;5.20;99.90
25128;DHT22;13107;51.304;6.866;2023-04-02T03:36:02;5.20;99.90
25128;DHT22;13107;51.304;6.866;2023-04-02T03:40:13;5.30;99.90
25128;DHT22;13107;51.304;6.866;2023-04-02T03:44:22;5.20;99.90
25128;DHT22;13107;51.304;6.866;2023-04-02T03:48:37;5.20;99.90
25128;DHT22;13107;51.304;6.866;2023-04-02T03:52:39;5.20;99.90
25128;DHT22;13107;51.304;6.866;2023-04-02T03:56:43;5.20;99.90
25128;DHT22;13107;51.304;6.866;2023-04-02T04:01:09;5.20;99.90
25128;DHT22;13107;51.304;6.866;2023-04-02T04:05:22;5.20;99.90
25128;DHT22;13107;51.304;6.866;2023-04-02T04:09:29;5.20;99.90
25128;DHT22;13107;51.304;6.866;2023-04-02T04:13:47;5.20;99.90
25128;DHT22;13107;51.304;6.866;2023-04-02T04:17:59;5.10;99.90
25128;DHT22;13107;51.304;6.866;2023-04-02T04:22:29;5.10;99.90
25128;DHT22;13107;51.304;6.866;2023-04-02T04:26:40;5.00;99.90
25128;DHT22;13107;51.304;6.866;2023-04-02T04:35:32;4.80;99.90
25128;DHT22;13107;51.304;6.866;2023-04-02T04:39:39;4.70;99.90
25128;DHT22;13107;51.304;6.866;2023-04-02T04:48:23;4.70;99.90
25128;DHT22;13107;51.304;6.866;2023-04-02T04:52:35;4.50;99.90
25128;DHT22;13107;51.304;6.866;2023-04-02T04:56:38;4.50;99.90
25128;DHT22;13107;51.304;6.866;2023-04-02T05:05:29;4.50;99.90
25128;DHT22;13107;51.304;6.866;2023-04-02T05:09:39;4.50;99.90
25128;DHT22;13107;51.304;6.866;2023-04-02T05:13:51;4.40;99.90
25128;DHT22;13107;51.304;6.866;2023-04-02T05:17:58;4.40;99.90
25128;DHT22;13107;51.304;6.866;2023-04-02T05:22:11;4.40;99.90
25128;DHT22;13107;51.304;6.866;2023-04-02T05:26:18;4.30;99.90
25128;DHT22;13107;51.304;6.866;2023-04-02T05:34:26;4.30;99.90
25128;DHT22;13107;51.304;6.866;2023-04-02T05:38:33;4.30;99.90
25128;DHT22;13107;51.304;6.866;2023-04-02T05:42:36;4.20;99.90
25128;DHT22;13107;51.304;6.866;2023-04-02T05:46:53;4.10;99.90
25128;DHT22;13107;51.304;6.866;2023-04-02T05:50:56;4.20;99.90
25128;DHT22;13107;51.304;6.866;2023-04-02T05:55:25;4.20;99.90
25128;DHT22;13107;51.304;6.866;2023-04-02T05:59:35;4.20;99.90
25128;DHT22;13107;51.304;6.866;2023-04-02T06:04:03;4.10;99.90
25128;DHT22;13107;51.304;6.866;2023-04-02T06:08:14;4.20;99.90
25128;DHT22;13107;51.304;6.866;2023-04-02T06:12:30;4.20;99.90
25128;DHT22;13107;51.304;6.866;2023-04-02T06:16:33;4.10;99.90
25128;DHT22;13107;51.304;6.866;2023-04-02T06:20:37;4.20;99.90
25128;DHT22;13107;51.304;6.866;2023-04-02T06:24:39;4.20;99.90
25128;DHT22;13107;51.304;6.866;2023-04-02T06:28:46;4.20;99.90
25128;DHT22;13107;51.304;6.866;2023-04-02T06:32:48;4.20;99.90
25128;DHT22;13107;51.304;6.866;2023-04-02T06:36:54;4.20;99.90
25128;DHT22;13107;51.304;6.866;2023-04-02T06:41:14;4.20;99.90
25128;DHT22;13107;51.304;6.866;2023-04-02T06:45:28;4.10;99.90
25128;DHT22;13107;51.304;6.866;2023-04-02T06:49:39;4.10;99.90
25128;DHT22;13107;51.304;6.866;2023-04-02T06:53:48;4.20;99.90
25128;DHT22;13107;51.304;6.866;2023-04-02T06:57:49;4.10;99.90
25128;DHT22;13107;51.304;6.866;2023-04-02T07:02:13;4.00;99.90
25128;DHT22;13107;51.304;6.866;2023-04-02T07:06:19;4.10;99.90
25128;DHT22;13107;51.304;6.866;2023-04-02T07:10:22;4.10;99.90
25128;DHT22;13107;51.304;6.866;2023-04-02T07:14:24;4.10;99.90
25128;DHT22;13107;51.304;6.866;2023-04-02T07:18:31;4.10;99.90
25128;DHT22;13107;51.304;6.866;2023-04-02T07:22:32;4.10;99.90
25128;DHT22;13107;51.304;6.866;2023-04-02T07:26:34;4.10;99.90
25128;DHT22;13107;51.304;6.866;2023-04-02T07:30:36;4.20;99.90
25128;DHT22;13107;51.304;6.866;2023-04-02T07:34:39;4.20;99.90
25128;DHT22;13107;51.304;6.866;2023-04-02T07:38:41;4.20;99.90
25128;DHT22;13107;51.304;6.866;2023-04-02T07:42:43;4.30;99.90
25128;DHT22;13107;51.304;6.866;2023-04-02T07:46:45;4.30;99.90
25128;DHT22;13107;51.304;6.866;2023-04-02T07:50:47;4.20;99.90
25128;DHT22;13107;51.304;6.866;2023-04-02T07:54:49;4.30;99.90
25128;DHT22;13107;51.304;6.866;2023-04-02T07:58:51;4.40;99.90
25128;DHT22;13107;51.304;6.866;2023-04-02T08:02:53;4.30;99.90
25128;DHT22;13107;51.304;6.866;2023-04-02T08:06:55;4.30;99.90
25128;DHT22;13107;51.304;6.866;2023-04-02T08:10:57;4.40;99.90
25128;DHT22;13107;51.304;6.866;2023-04-02T08:14:58;4.40;99.90
25128;DHT22;13107;51.304;6.866;2023-04-02T08:19:00;4.50;99.90
25128;DHT22;13107;51.304;6.866;2023-04-02T08:23:02;4.60;99.90
25128;DHT22;13107;51.304;6.866;2023-04-02T08:27:04;4.50;99.90
25128;DHT22;13107;51.304;6.866;2023-04-02T08:31:07;4.60;99.90
25128;DHT22;13107;51.304;6.866;2023-04-02T08:35:11;4.60;99.90
25128;DHT22;13107;51.304;6.866;2023-04-02T08:39:13;4.60;99.90
25128;DHT22;13107;51.304;6.866;2023-04-02T08:47:41;4.80;99.90
25128;DHT22;13107;51.304;6.866;2023-04-02T08:51:45;4.80;99.90
25128;DHT22;13107;51.304;6.866;2023-04-02T09:00:38;4.80;99.90
25128;DHT22;13107;51.304;6.866;2023-04-02T09:04:40;4.80;99.90
25128;DHT22;13107;51.304;6.866;2023-04-02T09:08:44;4.90;99.90
25128;DHT22;13107;51.304;6.866;2023-04-02T09:12:50;4.90;99.90
25128;DHT22;13107;51.304;6.866;2023-04-02T09:17:00;5.20;99.90
25128;DHT22;13107;51.304;6.866;2023-04-02T09:25:26;5.70;99.90
25128;DHT22;13107;51.304;6.866;2023-04-02T09:29:43;5.50;99.90
25128;DHT22;13107;51.304;6.866;2023-04-02T09:33:47;5.60;99.90
25128;DHT22;13107;51.304;6.866;2023-04-02T09:42:33;5.80;99.90
25128;DHT22;13107;51.304;6.866;2023-04-02T09:46:35;5.40;99.90
25128;DHT22;13107;51.304;6.866;2023-04-02T09:50:37;5.50;99.90
25128;DHT22;13107;51.304;6.866;2023-04-02T09:54:39;5.70;99.90
25128;DHT22;13107;51.304;6.866;2023-04-02T09:58:44;5.70;99.90
25128;DHT22;13107;51.304;6.866;2023-04-02T10:03:03;5.70;99.90
25128;DHT22;13107;51.304;6.866;2023-04-02T10:07:05;5.90;99.90
25128;DHT22;13107;51.304;6.866;2023-04-02T10:11:11;5.90;99.90
25128;DHT22;13107;51.304;6.866;2023-04-02T10:15:17;5.80;99.90
25128;DHT22;13107;51.304;6.866;2023-04-02T10:19:34;5.60;99.90
25128;DHT22;13107;51.304;6.866;2023-04-02T10:23:38;5.50;99.90
25128;DHT22;13107;51.304;6.866;2023-04-02T10:40:42;5.90;99.90
25128;DHT22;13107;51.304;6.866;2023-04-02T10:44:51;5.80;99.90
25128;DHT22;13107;51.304;6.866;2023-04-02T10:53:17;6.00;99.90
25128;DHT22;13107;51.304;6.866;2023-04-02T11:01:33;6.10;99.90
25128;DHT22;13107;51.304;6.866;2023-04-02T11:06:04;5.80;99.90
25128;DHT22;13107;51.304;6.866;2023-04-02T11:10:14;5.60;99.90
25128;DHT22;13107;51.304;6.866;2023-04-02T11:14:28;5.80;99.90
25128;DHT22;13107;51.304;6.866;2023-04-02T11:18:32;6.00;99.90
25128;DHT22;13107;51.304;6.866;2023-04-02T11:22:37;6.00;99.90
25128;DHT22;13107;51.304;6.866;2023-04-02T11:26:41;5.80;99.90
25128;DHT22;13107;51.304;6.866;2023-04-02T11:30:48;5.90;99.90
25128;DHT22;13107;51.304;6.866;2023-04-02T11:39:09;6.20;99.90
25128;DHT22;13107;51.304;6.866;2023-04-02T11:47:35;6.50;99.90
25128;DHT22;13107;51.304;6.866;2023-04-02T11:55:41;6.90;99.90
25128;DHT22;13107;51.304;6.866;2023-04-02T12:00:02;7.30;99.90
25128;DHT22;13107;51.304;6.866;2023-04-02T12:04:21;7.70;99.90
25128;DHT22;13107;51.304;6.866;2023-04-02T12:08:56;7.80;99.90
25128;DHT22;13107;51.304;6.866;2023-04-02T12:13:17;8.20;99.90
25128;DHT22;13107;51.304;6.866;2023-04-02T12:17:32;9.20;99.90
25128;DHT22;13107;51.304;6.866;2023-04-02T12:21:36;9.10;99.90
25128;DHT22;13107;51.304;6.866;2023-04-02T12:25:38;8.80;99.90
25128;DHT22;13107;51.304;6.866;2023-04-02T12:29:41;8.60;99.90
25128;DHT22;13107;51.304;6.866;2023-04-02T12:33:43;7.80;99.90
25128;DHT22;13107;51.304;6.866;2023-04-02T12:37:51;7.70;99.90
25128;DHT22;13107;51.304;6.866;2023-04-02T12:41:53;7.60;99.90
25128;DHT22;13107;51.304;6.866;2023-04-02T12:45:58;6.70;99.90
25128;DHT22;13107;51.304;6.866;2023-04-02T12:50:01;6.80;99.90
25128;DHT22;13107;51.304;6.866;2023-04-02T12:54:03;6.70;99.90
25128;DHT22;13107;51.304;6.866;2023-04-02T12:58:25;6.70;99.90
25128;DHT22;13107;51.304;6.866;2023-04-02T13:02:30;6.60;99.90
25128;DHT22;13107;51.304;6.866;2023-04-02T13:06:34;6.40;99.90
25128;DHT22;13107;51.304;6.866;2023-04-02T13:10:36;6.40;99.90
25128;DHT22;13107;51.304;6.866;2023-04-02T13:14:38;6.20;99.90
25128;DHT22;13107;51.304;6.866;2023-04-02T13:18:42;6.20;99.90
25128;DHT22;13107;51.304;6.866;2023-04-02T13:22:44;6.40;99.90
25128;DHT22;13107;51.304;6.866;2023-04-02T13:26:47;6.50;99.90
25128;DHT22;13107;51.304;6.866;2023-04-02T13:30:50;6.60;99.90
25128;DHT22;13107;51.304;6.866;2023-04-02T13:34:52;6.80;99.90
25128;DHT22;13107;51.304;6.866;2023-04-02T13:38:54;6.60;99.90
25128;DHT22;13107;51.304;6.866;2023-04-02T13:42:56;6.30;99.90
25128;DHT22;13107;51.304;6.866;2023-04-02T13:46:58;6.30;99.90
25128;DHT22;13107;51.304;6.866;2023-04-02T13:51:00;6.20;99.90
25128;DHT22;13107;51.304;6.866;2023-04-02T13:55:02;6.20;99.90
25128;DHT22;13107;51.304;6.866;2023-04-02T13:59:05;6.20;99.90
25128;DHT22;13107;51.304;6.866;2023-04-02T14:03:11;6.40;99.90
25128;DHT22;13107;51.304;6.866;2023-04-02T14:11:41;6.30;99.90
25128;DHT22;13107;51.304;6.866;2023-04-02T14:16:03;6.40;99.90
25128;DHT22;13107;51.304;6.866;2023-04-02T14:24:58;6.60;99.90
25128;DHT22;13107;51.304;6.866;2023-04-02T14:29:13;6.70;99.90
25128;DHT22;13107;51.304;6.866;2023-04-02T14:33:33;6.90;99.90
25128;DHT22;13107;51.304;6.866;2023-04-02T14:38:08;6.70;99.90
25128;DHT22;13107;51.304;6.866;2023-04-02T14:42:21;6.70;99.90
25128;DHT22;13107;51.304;6.866;2023-04-02T14:46:27;6.90;99.90
25128;DHT22;13107;51.304;6.866;2023-04-02T14:50:40;7.20;99.90
25128;DHT22;13107;51.304;6.866;2023-04-02T14:55:01;7.50;99.90
25128;DHT22;13107;51.304;6.866;2023-04-02T15:04:03;7.50;99.90
25128;DHT22;13107;51.304;6.866;2023-04-02T15:12:25;7.40;99.90
25128;DHT22;13107;51.304;6.866;2023-04-02T15:16:29;7.60;99.90
25128;DHT22;13107;51.304;6.866;2023-04-02T15:20:53;7.80;99.90
25128;DHT22;13107;51.304;6.866;2023-04-02T15:42:20;7.30;99.90
25128;DHT22;13107;51.304;6.866;2023-04-02T15:46:55;7.50;99.90
25128;DHT22;13107;51.304;6.866;2023-04-02T15:51:24;7.60;99.90
25128;DHT22;13107;51.304;6.866;2023-04-02T15:55:44;7.70;99.90
25128;DHT22;13107;51.304;6.866;2023-04-02T16:12:38;7.80;99.90
25128;DHT22;13107;51.304;6.866;2023-04-02T16:16:41;7.70;99.90
25128;DHT22;13107;51.304;6.866;2023-04-02T16:20:46;7.70;99.90
25128;DHT22;13107;51.304;6.866;2023-04-02T16:24:58;7.40;99.90
25128;DHT22;13107;51.304;6.866;2023-04-02T16:29:30;7.30;99.90
25128;DHT22;13107;51.304;6.866;2023-04-02T16:34:06;7.20;99.90
25128;DHT22;13107;51.304;6.866;2023-04-02T16:38:32;7.10;99.90
25128;DHT22;13107;51.304;6.866;2023-04-02T16:42:46;7.10;99.90
25128;DHT22;13107;51.304;6.866;2023-04-02T16:47:02;7.00;99.90
25128;DHT22;13107;51.304;6.866;2023-04-02T17:07:50;6.60;99.90
25128;DHT22;13107;51.304;6.866;2023-04-02T17:12:03;6.70;99.90
25128;DHT22;13107;51.304;6.866;2023-04-02T17:16:29;6.60;99.90
25128;DHT22;13107;51.304;6.866;2023-04-02T17:20:33;6.60;99.90
25128;DHT22;13107;51.304;6.866;2023-04-02T17:24:39;6.60;99.90
25128;DHT22;13107;51.304;6.866;2023-04-02T17:28:43;6.60;99.90
25128;DHT22;13107;51.304;6.866;2023-04-02T17:32:46;6.70;99.90
25128;DHT22;13107;51.304;6.866;2023-04-02T17:37:06;6.70;99.90
25128;DHT22;13107;51.304;6.866;2023-04-02T17:41:27;6.70;99.90
25128;DHT22;13107;51.304;6.866;2023-04-02T17:50:03;6.50;99.90
25128;DHT22;13107;51.304;6.866;2023-04-02T18:16:46;5.90;99.90
25128;DHT22;13107;51.304;6.866;2023-04-02T18:21:14;5.80;99.90
25128;DHT22;13107;51.304;6.866;2023-04-02T18:37:55;5.30;99.90
25128;DHT22;13107;51.304;6.866;2023-04-02T18:50:34;4.90;99.90
25128;DHT22;13107;51.304;6.866;2023-04-02T18:54:48;4.70;99.90
25128;DHT22;13107;51.304;6.866;2023-04-02T19:03:45;4.50;99.90
25128;DHT22;13107;51.304;6.866;2023-04-02T19:07:56;4.30;99.90
25128;DHT22;13107;51.304;6.866;2023-04-02T19:12:01;4.10;99.90
25128;DHT22;13107;51.304;6.866;2023-04-02T19:20:49;3.90;99.90
25128;DHT22;13107;51.304;6.866;2023-04-02T19:39:03;3.20;99.90
25128;DHT22;13107;51.304;6.866;2023-04-02T19:43:06;3.00;99.90
25128;DHT22;13107;51.304;6.866;2023-04-02T19:47:10;2.90;99.90
25128;DHT22;13107;51.304;6.866;2023-04-02T19:51:12;2.80;99.90
25128;DHT22;13107;51.304;6.866;2023-04-02T19:55:14;2.80;99.90
25128;DHT22;13107;51.304;6.866;2023-04-02T19:59:16;2.60;99.90
25128;DHT22;13107;51.304;6.866;2023-04-02T20:03:19;2.40;99.90
25128;DHT22;13107;51.304;6.866;2023-04-02T20:07:21;2.40;99.90
25128;DHT22;13107;51.304;6.866;2023-04-02T20:11:24;2.30;99.90
25128;DHT22;13107;51.304;6.866;2023-04-02T20:15:27;2.20;99.90
25128;DHT22;13107;51.304;6.866;2023-04-02T20:19:28;2.20;99.90
25128;DHT22;13107;51.304;6.866;2023-04-02T20:23:30;2.10;99.90
25128;DHT22;13107;51.304;6.866;2023-04-02T20:27:32;2.00;99.90
25128;DHT22;13107;51.304;6.866;2023-04-02T20:31:34;2.00;99.90
25128;DHT22;13107;51.304;6.866;2023-04-02T20:35:36;1.90;99.90
25128;DHT22;13107;51.304;6.866;2023-04-02T20:39:38;1.80;99.90
25128;DHT22;13107;51.304;6.866;2023-04-02T20:43:40;1.70;99.90
25128;DHT22;13107;51.304;6.866;2023-04-02T20:47:43;1.70;99.90
25128;DHT22;13107;51.304;6.866;2023-04-02T20:51:45;1.60;99.90
25128;DHT22;13107;51.304;6.866;2023-04-02T20:55:49;1.60;99.90
25128;DHT22;13107;51.304;6.866;2023-04-02T20:59:50;1.50;99.90
25128;DHT22;13107;51.304;6.866;2023-04-02T21:03:54;1.50;99.90
25128;DHT22;13107;51.304;6.866;2023-04-02T21:07:57;1.30;99.90
25128;DHT22;13107;51.304;6.866;2023-04-02T21:11:58;1.20;99.90
25128;DHT22;13107;51.304;6.866;2023-04-02T21:16:00;1.20;99.90
25128;DHT22;13107;51.304;6.866;2023-04-02T21:20:03;1.20;99.90
25128;DHT22;13107;51.304;6.866;2023-04-02T21:24:06;1.10;99.90
25128;DHT22;13107;51.304;6.866;2023-04-02T21:28:08;1.00;99.90
25128;DHT22;13107;51.304;6.866;2023-04-02T21:32:10;1.00;99.90
25128;DHT22;13107;51.304;6.866;2023-04-02T21:36:24;0.90;99.90
25128;DHT22;13107;51.304;6.866;2023-04-02T21:40:26;0.90;99.90
25128;DHT22;13107;51.304;6.866;2023-04-02T21:44:28;0.90;99.90
25128;DHT22;13107;51.304;6.866;2023-04-02T21:48:30;0.80;99.90
25128;DHT22;13107;51.304;6.866;2023-04-02T21:52:32;0.70;99.90
25128;DHT22;13107;51.304;6.866;2023-04-02T21:56:36;0.70;99.90
25128;DHT22;13107;51.304;6.866;2023-04-02T22:00:38;0.70;99.90
25128;DHT22;13107;51.304;6.866;2023-04-02T22:04:40;0.70;99.90
25128;DHT22;13107;51.304;6.866;2023-04-02T22:08:43;0.70;99.90
25128;DHT22;13107;51.304;6.866;2023-04-02T22:12:45;0.60;99.90
25128;DHT22;13107;51.304;6.866;2023-04-02T22:16:47;0.60;99.90
25128;DHT22;13107;51.304;6.866;2023-04-02T22:20:53;0.60;99.90
25128;DHT22;13107;51.304;6.866;2023-04-02T22:24:55;0.60;99.90
25128;DHT22;13107;51.304;6.866;2023-04-02T22:28:57;0.50;99.90
25128;DHT22;13107;51.304;6.866;2023-04-02T22:32:59;0.40;99.90
25128;DHT22;13107;51.304;6.866;2023-04-02T22:37:01;0.40;99.90
25128;DHT22;13107;51.304;6.866;2023-04-02T22:41:05;0.40;99.90
25128;DHT22;13107;51.304;6.866;2023-04-02T22:45:08;0.40;99.90
25128;DHT22;13107;51.304;6.866;2023-04-02T22:49:10;0.40;99.90
25128;DHT22;13107;51.304;6.866;2023-04-02T22:53:12;0.40;99.90
25128;DHT22;13107;51.304;6.866;2023-04-02T22:57:15;0.40;99.90
25128;DHT22;13107;51.304;6.866;2023-04-02T23:01:19;0.40;99.90
25128;DHT22;13107;51.304;6.866;2023-04-02T23:05:21;0.30;99.90
25128;DHT22;13107;51.304;6.866;2023-04-02T23:09:23;0.30;99.90
25128;DHT22;13107;51.304;6.866;2023-04-02T23:13:25;0.20;99.90
25128;DHT22;13107;51.304;6.866;2023-04-02T23:17:27;0.20;99.90
25128;DHT22;13107;51.304;6.866;2023-04-02T23:21:29;0.20;99.90
25128;DHT22;13107;51.304;6.866;2023-04-02T23:25:30;0.20;99.90
25128;DHT22;13107;51.304;6.866;2023-04-02T23:29:32;0.20;99.90
25128;DHT22;13107;51.304;6.866;2023-04-02T23:33:34;0.20;99.90
25128;DHT22;13107;51.304;6.866;2023-04-02T23:37:36;0.20;99.90
25128;DHT22;13107;51.304;6.866;2023-04-02T23:41:40;0.20;99.90
25128;DHT22;13107;51.304;6.866;2023-04-02T23:45:48;0.30;99.90
25128;DHT22;13107;51.304;6.866;2023-04-02T23:49:50;0.30;99.90
25128;DHT22;13107;51.304;6.866;2023-04-02T23:53:53;0.30;99.90
25128;DHT22;13107;51.304;6.866;2023-04-02T23:57:55;0.20;99.90
